Data for 06/29/2007

Time Sea-Level Adjusted Pressure Absolute Pressure Temperature Relative Humidity Dew Point   
(mb) (inHg) (mb) (inHg) (C) (F) (%) (C) (F)
00:05 1015 29.97 845 24.95 22.5 72.5 41 8.7 47.6
00:10 1015 29.97 845 24.95 22.3 72.1 42 8.9 48.1
00:15 1015 29.97 845 24.95 22 71.6 43 8.9 48
00:20 1015 29.97 845 24.95 21.9 71.4 43 8.8 47.9
00:25 1015 29.97 845 24.95 21.8 71.2 42 8.4 47.2
00:30 1015 29.97 845 24.95 21.9 71.5 42 8.5 47.4
00:35 1015 29.97 845 24.95 21.8 71.2 42 8.6 47.5
00:40 1015 29.97 845 24.95 21.6 70.8 43 8.7 47.6
00:45 1015 29.97 845 24.95 21.4 70.5 43 8.4 47.2
00:50 1015 29.97 845 24.95 21.4 70.4 42 8.2 46.7
00:55 1015 29.97 845 24.95 21.1 69.9 44 8.6 47.5
01:00 1015 29.97 845 24.95 20.7 69.2 44 8.2 46.7
01:05 1015 29.97 845 24.95 21.1 70 42 7.9 46.3
01:10 1015 29.97 845 24.95 21.4 70.6 43 8.4 47.1
01:15 1015 29.97 844 24.92 21.2 70.1 45 8.9 48
01:20 1015 29.97 844 24.92 20.5 68.8 45 8.4 47.1
01:25 1015 29.97 844 24.92 20.1 68.2 44 7.5 45.5
01:30 1015 29.97 844 24.92 20.2 68.3 43 7.2 45
01:35 1015 29.97 844 24.92 20.7 69.3 42 7.4 45.3
01:40 1015 29.97 844 24.92 20.8 69.4 42 7.4 45.3
01:45 1015 29.97 844 24.92 20.8 69.4 41 7.3 45.1
01:50 1015 29.97 844 24.92 20.7 69.2 41 7.1 44.9
01:55 1015 29.97 844 24.92 20.9 69.7 39 6.5 43.7
02:00 1015 29.97 844 24.92 21.4 70.5 37 6.3 43.4
02:05 1015 29.97 844 24.92 21.6 71 37 6.6 43.8
02:10 1015 29.97 844 24.92 21.6 70.8 37 6.4 43.5
02:15 1015 29.97 844 24.92 21.4 70.5 38 6.7 44
02:20 1015 29.97 844 24.92 21.1 70 38 6.3 43.4
02:25 1015 29.97 844 24.92 21.3 70.4 37 6 42.9
02:30 1015 29.97 844 24.92 21.2 70.2 37 6.3 43.3
02:35 1015 29.97 844 24.92 20.8 69.5 35 5 41
02:40 1015 29.97 844 24.92 20.7 69.2 35 4.9 40.8
02:45 1015 29.97 845 24.95 20.7 69.3 35 4.9 40.8
02:50 1015 29.97 845 24.95 20.4 68.8 38 5.9 42.6
02:55 1015 29.97 845 24.95 20.1 68.3 36 4.8 40.7
03:00 1016 30 845 24.95 19.9 67.8 38 5.3 41.5
03:05 1016 30 845 24.95 19.2 66.5 41 5.9 42.6
03:10 1016 30 845 24.95 18.8 65.8 43 6.1 42.9
03:15 1016 30 845 24.95 18.7 65.6 45 6.7 44
03:20 1016 30 845 24.95 18.5 65.3 46 6.8 44.2
03:25 1016 30 845 24.95 18.3 65 47 6.9 44.4
03:30 1016 30 845 24.95 18.3 64.9 47 6.9 44.4
03:35 1016 30 845 24.95 18.5 65.2 46 6.8 44.2
03:40 1016 30 845 24.95 18.3 64.9 47 7 44.6
03:45 1016 30 845 24.95 17.7 63.8 47 6.4 43.6
03:50 1016 30 845 24.95 17.2 62.9 51 7.1 44.8
03:55 1016 30 845 24.95 17 62.6 45 5.1 41.2
04:00 1016 30 845 24.95 16.8 62.3 42 4.1 39.4
04:05 1016 30 845 24.95 16.8 62.2 41 3.6 38.5
04:10 1016 30 845 24.95 17 62.6 40 3.6 38.4
04:15 1016 30 845 24.95 16.9 62.4 40 3.2 37.7
04:20 1016 30 845 24.95 16.8 62.2 40 3.4 38.1
04:25 1016 30 845 24.95 16.4 61.6 43 3.9 39
04:30 1016 30 845 24.95 15.7 60.3 43 3.4 38
04:35 1016 30 845 24.95 15.9 60.7 43 3.4 38.2
04:40 1016 30 845 24.95 17 62.6 38 2.8 37
04:45 1016 30 845 24.95 17 62.6 39 3 37.4
04:50 1016 30 845 24.95 16.9 62.4 37 2.2 36
04:55 1016 30 845 24.95 16.9 62.3 39 2.8 37
05:00 1016 30 845 24.95 16.4 61.5 40 2.7 36.9
05:05 1016 30 845 24.95 16.3 61.3 38 2.2 35.9
05:10 1016 30 845 24.95 16.3 61.4 36 1.3 34.4
05:15 1016 30 845 24.95 16.7 62 34 0.9 33.7
05:20 1016 30 845 24.95 17.1 62.7 32 0.3 32.6
05:25 1016 30 845 24.95 17.6 63.6 34 1.8 35.2
05:30 1016 30 845 24.95 17.7 63.9 32 0.8 33.5
05:35 1016 30 845 24.95 17.2 63 33 0.8 33.5
05:40 1016 30 845 24.95 17.1 62.7 32 0.6 33
05:45 1016 30 845 24.95 17 62.6 32 0.5 32.9
05:50 1016 30 845 24.95 16.9 62.5 32 0.4 32.8
05:55 1016 30 845 24.95 17.1 62.9 30 -0.2 31.6
06:00 1016 30 846 24.98 17.4 63.4 29 -0.5 31.2
06:05 1016 30 846 24.98 17.5 63.5 30 -0.2 31.7
06:10 1016 30 846 24.98 17.5 63.5 31 0.1 32.2
06:15 1016 30 846 24.98 17.4 63.2 30 -0.1 31.9
06:20 1016 30 846 24.98 17.4 63.3 30 -0.2 31.6
06:25 1016 30 846 24.98 17.3 63.1 31 -0.1 31.9
06:30 1016 30 846 24.98 17.3 63.2 31 0.1 32.1
06:35 1016 30 846 24.98 17.4 63.4 31 0.4 32.8
06:40 1016 30 846 24.98 17.3 63.1 33 1.1 33.9
06:45 1016 30 846 24.98 17.1 62.9 32 0.2 32.4
06:50 1016 30 846 24.98 17.4 63.4 33 1 33.8
06:55 1016 30 846 24.98 17.5 63.4 32 0.7 33.2
07:00 1016 30 846 24.98 17.3 63.2 33 1.1 34
07:05 1016 30 846 24.98 17.4 63.3 34 1.3 34.3
07:10 1016 30 846 24.98 17.2 63 34 1.2 34.1
07:15 1016 30 846 24.98 17.4 63.3 34 1.4 34.6
07:20 1016 30 846 24.98 17.4 63.3 35 1.8 35.3
07:25 1016 30 846 24.98 17.4 63.3 34 1.4 34.5
07:30 1016 30 846 24.98 17.1 62.9 38 2.8 37
07:35 1016 30 845 24.95 17 62.6 40 3.5 38.3
07:40 1016 30 845 24.95 17.1 62.9 41 4 39.2
07:45 1016 30 845 24.95 17.6 63.7 38 3.4 38.1
07:50 1016 30 845 24.95 17.9 64.2 39 3.8 38.9
07:55 1016 30 845 24.95 18.2 64.8 37 3.6 38.4
08:00 1016 30 846 24.98 18.8 65.9 37 4.1 39.3
08:05 1016 30 846 24.98 19.1 66.4 35 3.2 37.8
08:10 1016 30 846 24.98 19.6 67.3 35 4 39.2
08:15 1016 30 846 24.98 20.4 68.7 34 4.2 39.5
08:20 1016 30 846 24.98 20.7 69.2 32 3.6 38.4
08:25 1016 30 846 24.98 21.1 69.9 32 4.1 39.4
08:30 1016 30 846 24.98 20.9 69.7 34 4.7 40.4
08:35 1016 30 846 24.98 20.9 69.6 39 6.4 43.6
08:40 1016 30 846 24.98 20.4 68.7 37 5.3 41.5
08:45 1016 30 846 24.98 20.1 68.3 36 5 40.9
08:50 1016 30 846 24.98 20.2 68.3 39 5.8 42.5
08:55 1016 30 846 24.98 20 67.9 46 8 46.4
09:00 1016 30 846 24.98 19.7 67.5 44 7.4 45.3
09:05 1016 30 846 24.98 19.8 67.6 44 7.3 45.1
09:10 1016 30 846 24.98 20.3 68.5 42 7 44.6
09:15 1017 30.03 846 24.98 20.9 69.6 41 7.3 45.2
09:20 1017 30.03 846 24.98 20.9 69.7 40 6.9 44.4
09:25 1016 30 846 24.98 21.3 70.3 40 7.3 45.2
09:30 1016 30 846 24.98 21.4 70.6 39 7.1 44.9
09:35 1016 30 846 24.98 21.7 71.1 39 7.4 45.3
09:40 1016 30 846 24.98 21.9 71.3 37 6.9 44.3
09:45 1016 30 846 24.98 21.8 71.2 39 7.5 45.6
09:50 1017 30.03 846 24.98 22.3 72.1 40 8.1 46.5
09:55 1017 30.03 846 24.98 22.7 72.8 38 8 46.3
10:00 1017 30.03 846 24.98 22.7 72.9 39 8.2 46.8
10:05 1017 30.03 846 24.98 23.4 74.1 38 8.4 47.1
10:10 1016 30 846 24.98 23.1 73.6 39 8.7 47.7
10:15 1017 30.03 846 24.98 23.1 73.5 42 9.5 49.2
10:20 1017 30.03 846 24.98 22.9 73.2 43 9.9 49.8
10:25 1017 30.03 846 24.98 22.7 72.8 44 9.9 49.8
10:30 1017 30.03 846 24.98 22.3 72.1 46 10.4 50.6
10:35 1017 30.03 846 24.98 22.4 72.3 45 10 50
10:40 1016 30 846 24.98 22.9 73.2 43 9.9 49.8
10:45 1016 30 846 24.98 23.1 73.6 40 8.8 47.8
10:50 1016 30 846 24.98 23.3 74 44 10.4 50.8
10:55 1016 30 846 24.98 23.5 74.3 42 10.1 50.2
11:00 1016 30 846 24.98 24 75.2 37 8.6 47.5
11:05 1016 30 846 24.98 24.2 75.5 40 9.9 49.7
11:10 1016 30 846 24.98 24 75.3 40 10 50
11:15 1016 30 846 24.98 23.8 74.9 41 10 49.9
11:20 1016 30 845 24.95 23.5 74.4 40 9.5 49
11:25 1016 30 845 24.95 23.9 75.1 39 9.2 48.6
11:30 1016 30 845 24.95 24.7 76.5 37 9.4 48.9
11:35 1016 30 845 24.95 25.3 77.6 35 9.2 48.5
11:40 1016 30 845 24.95 25 77 34 8.2 46.7
11:45 1016 30 845 24.95 25.9 78.6 32 8.3 46.9
11:50 1016 30 845 24.95 25.5 77.9 32 7.9 46.2
11:55 1016 30 845 24.95 26.2 79.2 31 7.8 46.1
12:00 1016 30 845 24.95 26.2 79.1 30 7.4 45.4
12:05 1016 30 845 24.95 26.5 79.7 30 8 46.3
12:10 1016 30 845 24.95 25.9 78.6 27 6 42.7
12:15 1016 30 845 24.95 26.4 79.6 30 7.6 45.7
12:20 1016 30 845 24.95 26.5 79.6 31 8.1 46.6
12:25 1016 30 845 24.95 26.8 80.3 30 8.1 46.5
12:30 1015 29.97 845 24.95 27.8 82 30 9 48.2
12:35 1015 29.97 845 24.95 28.1 82.6 29 8.7 47.6
12:40 1015 29.97 845 24.95 28.3 82.9 29 9.1 48.3
12:45 1015 29.97 844 24.92 28.2 82.7 29 8.9 47.9
12:50 1015 29.97 844 24.92 28 82.3 30 8.8 47.9
12:55 1015 29.97 844 24.92 28.4 83.2 28 8.5 47.2
13:00 1015 29.97 844 24.92 28.1 82.6 30 9.1 48.3
13:05 1015 29.97 844 24.92 28.4 83.2 28 8.4 47
13:10 1015 29.97 844 24.92 28.1 82.6 30 9.1 48.4
13:15 1015 29.97 844 24.92 27.9 82.2 30 8.9 47.9
13:20 1015 29.97 844 24.92 29.1 84.4 28 8.9 48
13:25 1015 29.97 844 24.92 29.7 85.4 28 9.3 48.8
13:30 1015 29.97 844 24.92 29.2 84.6 28 9 48.1
13:35 1015 29.97 844 24.92 29.7 85.5 25 8.1 46.5
13:40 1015 29.97 844 24.92 30.4 86.7 23 7.3 45.2
13:45 1015 29.97 844 24.92 30.7 87.2 21 6 42.8
13:50 1015 29.97 844 24.92 29.5 85 22 5.6 42.1
13:55 1014 29.94 844 24.92 29.6 85.2 19 3.6 38.5
14:00 1014 29.94 844 24.92 30.2 86.4 18 3.8 38.8
14:05 1014 29.94 843 24.89 31.3 88.3 20 6.2 43.2
14:10 1014 29.94 843 24.89 30.9 87.5 21 6.1 42.9
14:15 1014 29.94 843 24.89 31 87.7 21 6.8 44.2
14:20 1014 29.94 843 24.89 31.4 88.5 19 5.2 41.3
14:25 1014 29.94 843 24.89 31.6 88.9 19 5.3 41.5
14:30 1014 29.94 843 24.89 32.5 90.6 17 4.7 40.4
14:35 1014 29.94 843 24.89 32.4 90.3 15 3.3 38
14:40 1014 29.94 843 24.89 32.7 90.9 14 2.3 36.1
14:45 1014 29.94 843 24.89 33.1 91.5 15 3.3 38
14:50 1014 29.94 843 24.89 32.1 89.8 15 2.3 36.1
14:55 1014 29.94 843 24.89 31.8 89.2 15 2.5 36.6
15:00 1014 29.94 843 24.89 32.2 89.9 16 3.2 37.7
15:05 1014 29.94 843 24.89 32.1 89.7 16 3.3 37.9
15:10 1014 29.94 843 24.89 31.9 89.4 14 1.8 35.3
15:15 1014 29.94 843 24.89 32.3 90.2 14 1.5 34.6
15:20 1014 29.94 843 24.89 32.8 91 14 2.3 36.2
15:25 1014 29.94 843 24.89 32.3 90.2 15 2.5 36.5
15:30 1014 29.94 843 24.89 32 89.5 13 0.8 33.5
15:35 1014 29.94 843 24.89 32.5 90.5 14 1.5 34.7
15:40 1014 29.94 843 24.89 33.1 91.5 13 1.5 34.7
15:45 1014 29.94 843 24.89 33.3 92 13 1.7 35
15:50 1014 29.94 843 24.89 32.6 90.7 14 2.1 35.7
15:55 1014 29.94 843 24.89 33.1 91.6 13 1.9 35.4
16:00 1014 29.94 843 24.89 33.4 92.2 20 7.9 46.2
16:05 1014 29.94 843 24.89 32.2 89.9 19 6.2 43.2
16:10 1014 29.94 843 24.89 32.8 91.1 17 5 41
16:15 1014 29.94 843 24.89 33.5 92.3 18 6.6 43.8
16:20 1014 29.94 843 24.89 33.2 91.7 18 5.9 42.7
16:25 1014 29.94 843 24.89 32.3 90.1 18 5.2 41.4
16:30 1014 29.94 843 24.89 31.9 89.3 21 7.3 45.2
16:35 1014 29.94 843 24.89 31.9 89.5 18 5 41
16:40 1014 29.94 843 24.89 32.3 90.1 21 7.4 45.3
16:45 1014 29.94 843 24.89 31.5 88.6 22 7.5 45.5
16:50 1014 29.94 843 24.89 30.7 87.2 24 7.9 46.2
16:55 1014 29.94 843 24.89 31.1 88 16 2.4 36.3
17:00 1014 29.94 843 24.89 31.8 89.2 15 2.5 36.5
17:05 1014 29.94 843 24.89 32.4 90.4 15 2.6 36.8
17:10 1014 29.94 843 24.89 32.1 89.8 16 3.2 37.7
17:15 1014 29.94 843 24.89 32 89.6 15 2.4 36.2
17:20 1014 29.94 843 24.89 31.7 89 16 2.9 37.3
17:25 1014 29.94 843 24.89 31.5 88.6 14 1.4 34.6
17:30 1014 29.94 843 24.89 31.1 87.9 14 1.1 34
17:35 1014 29.94 843 24.89 30.6 87.1 19 4.7 40.5
17:40 1014 29.94 843 24.89 30.1 86.2 20 5 40.9
17:45 1014 29.94 843 24.89 29.7 85.4 15 0.4 32.8
17:50 1014 29.94 843 24.89 30.6 87.1 14 0.3 32.5
17:55 1014 29.94 843 24.89 31 87.8 13 -0.1 31.8
18:00 1014 29.94 843 24.89 31 87.8 15 1.8 35.2
18:05 1014 29.94 843 24.89 30.4 86.7 13 -0.9 30.4
18:10 1014 29.94 843 24.89 30.6 87 15 1.1 33.9
18:15 1014 29.94 843 24.89 30 86.1 15 1.1 34
18:20 1014 29.94 843 24.89 29.7 85.4 14 -0.7 30.7
18:25 1014 29.94 843 24.89 29.4 84.9 14 -0.9 30.5
18:30 1014 29.94 843 24.89 29.6 85.2 15 0.4 32.8
18:35 1014 29.94 843 24.89 29 84.1 19 3.3 38
18:40 1014 29.94 843 24.89 28.8 83.8 15 -0.3 31.5
18:45 1014 29.94 843 24.89 29.1 84.4 17 2.2 35.9
18:50 1014 29.94 843 24.89 28.8 83.9 19 3.2 37.8
18:55 1014 29.94 843 24.89 28.1 82.5 20 3.3 38
19:00 1014 29.94 843 24.89 27.6 81.7 21 3.8 38.9
19:05 1014 29.94 843 24.89 27.9 82.2 20 3.3 38
19:10 1014 29.94 843 24.89 28.3 83 19 2.9 37.2
19:15 1014 29.94 843 24.89 28 82.4 20 3 37.3
19:20 1014 29.94 843 24.89 27.8 82.1 18 1.8 35.2
19:25 1014 29.94 843 24.89 27.6 81.8 19 2.1 35.8
19:30 1014 29.94 843 24.89 28.2 82.7 15 -0.2 31.6
19:35 1014 29.94 843 24.89 28.6 83.4 15 -0.4 31.2
19:40 1014 29.94 843 24.89 28.8 83.8 16 0.6 33.1
19:45 1014 29.94 843 24.89 28.5 83.3 14 -0.8 30.5
19:50 1014 29.94 843 24.89 29.1 84.3 13 -1.6 29.1
19:55 1014 29.94 843 24.89 29.2 84.6 14 -0.8 30.6
20:00 1014 29.94 843 24.89 29.3 84.7 16 0.9 33.7
20:05 1014 29.94 843 24.89 29.1 84.3 15 -0.3 31.4
20:10 1014 29.94 843 24.89 29.3 84.7 16 0.9 33.7
20:15 1014 29.94 844 24.92 28.9 84 16 0.9 33.6
20:20 1014 29.94 844 24.92 28.4 83.2 16 0.4 32.8
20:25 1014 29.94 844 24.92 28.5 83.3 15 -0.1 31.8
20:30 1014 29.94 844 24.92 28.6 83.4 15 0.2 32.3
20:35 1014 29.94 844 24.92 28.2 82.8 16 0.3 32.5
20:40 1014 29.94 844 24.92 28 82.4 15 -1 30.2
20:45 1015 29.97 844 24.92 28.1 82.6 15 -1 30.2
20:50 1015 29.97 844 24.92 28.3 83 14 -1.3 29.6
20:55 1014 29.94 844 24.92 28.5 83.3 14 -1 30.2
21:00 1015 29.97 844 24.92 28.3 82.9 14 -1.3 29.7
21:05 1015 29.97 844 24.92 27.8 82.1 15 -0.8 30.5
21:10 1015 29.97 844 24.92 27.5 81.4 15 -1.3 29.7
21:15 1015 29.97 844 24.92 27.5 81.4 15 -1.2 29.8
21:20 1015 29.97 844 24.92 26.7 80 16 -0.8 30.5
21:25 1015 29.97 844 24.92 25.9 78.7 17 -0.7 30.8
21:30 1015 29.97 844 24.92 26.2 79.2 14 -2.9 26.8
21:35 1015 29.97 844 24.92 26.7 80 16 -1.4 29.5
21:40 1015 29.97 844 24.92 26.3 79.3 15 -2 28.4
21:45 1015 29.97 844 24.92 26.4 79.5 15 -1.8 28.8
21:50 1015 29.97 844 24.92 26.3 79.4 15 -1.7 28.9
21:55 1015 29.97 845 24.95 26.1 79 15 -2.4 27.8
22:00 1015 29.97 845 24.95 26.1 79 15 -2.5 27.5
22:05 1015 29.97 844 24.92 26 78.8 15 -2.2 28
22:10 1015 29.97 845 24.95 25.8 78.4 15 -2.8 27
22:15 1015 29.97 845 24.95 25.5 77.8 15 -2.7 27.2
22:20 1015 29.97 845 24.95 25.4 77.6 16 -2.1 28.2
22:25 1015 29.97 844 24.92 25.5 77.8 15 -2.9 26.8
22:30 1015 29.97 844 24.92 25.6 78.1 15 -2.4 27.7
22:35 1015 29.97 844 24.92 25.9 78.6 15 -2.4 27.6
22:40 1015 29.97 844 24.92 25.8 78.4 16 -2 28.5
22:45 1015 29.97 844 24.92 25.4 77.7 16 -2.1 28.3
22:50 1015 29.97 845 24.95 25.2 77.4 17 -1.1 30.1
22:55 1015 29.97 845 24.95 24.8 76.7 17 -1.3 29.7
23:00 1015 29.97 845 24.95 25.1 77.2 17 -1.3 29.7
23:05 1015 29.97 845 24.95 25.1 77.1 18 -0.9 30.3
23:10 1015 29.97 845 24.95 25 77.1 18 -0.8 30.5
23:15 1015 29.97 845 24.95 25.1 77.1 17 -1.5 29.4
23:20 1015 29.97 845 24.95 25.1 77.1 17 -1.8 28.7
23:25 1015 29.97 845 24.95 25.4 77.7 17 -1.4 29.4
23:30 1016 30 845 24.95 25 77 17 -1.2 29.9
23:35 1016 30 845 24.95 24.8 76.6 18 -0.8 30.5
23:40 1016 30 845 24.95 24.4 75.9 18 -1 30.2
23:45 1016 30 845 24.95 24.3 75.8 19 -0.4 31.3
23:50 1016 30 845 24.95 24.2 75.6 19 -0.6 30.8
23:55 1016 30 845 24.95 24.2 75.6 21 0.5 32.9
24:00 1016 30 845 24.95 23 73.5 24 1.5 34.7